ΕΜΥ, Εθνική Μετεωρολογική Υπηρεσία - Δελτία Καιρού, Προγνώσεις

ΑΕΡΟΝΑΥΤΙΛΙΑ

GREEK AIRPORTS CODES

LGMK 190950Z 20005KT 9999 FEW016 19/11 Q1010 RMK FEW080=

EUROPEAN AIRPORTS CODES

LFPO 191000Z AUTO 28013KT 250V310 9999 OVC019 11/06 Q1018BECMG 27015G25KT=